createdAt,value
2024-02-02T00:01:55.387Z,14.63
2024-02-02T00:04:23.475Z,13.13
2024-02-02T00:06:51.568Z,14.83
2024-02-02T00:09:20.851Z,13.07
2024-02-02T00:11:50.355Z,13.67
2024-02-02T00:14:18.599Z,14.10
2024-02-02T00:16:46.843Z,15.30
2024-02-02T00:19:15.022Z,15.90
2024-02-02T00:21:43.100Z,15.93
2024-02-02T00:24:11.778Z,15.90
2024-02-02T00:26:39.842Z,15.73
2024-02-02T00:29:09.317Z,16.73
2024-02-02T00:31:37.336Z,17.83
2024-02-02T00:34:05.578Z,15.00
2024-02-02T00:36:33.703Z,15.47
2024-02-02T00:39:02.091Z,17.20
2024-02-02T00:41:30.169Z,15.17
2024-02-02T00:43:58.356Z,15.10
2024-02-02T00:46:29.711Z,15.17
2024-02-02T00:48:58.097Z,15.47
2024-02-02T00:51:26.717Z,14.63
2024-02-02T00:53:54.806Z,14.03
2024-02-02T00:56:25.313Z,13.10
2024-02-02T00:58:53.556Z,12.33
2024-02-02T01:01:21.637Z,12.33
2024-02-02T01:03:51.159Z,13.87
2024-02-02T01:06:19.279Z,13.77
2024-02-02T01:08:47.531Z,13.53
2024-02-02T01:11:15.689Z,12.93
2024-02-02T01:13:43.708Z,13.50
2024-02-02T01:16:11.752Z,13.80
2024-02-02T01:18:39.929Z,14.40
2024-02-02T01:21:10.184Z,14.77
2024-02-02T01:23:38.265Z,15.03
2024-02-02T01:26:06.539Z,13.40
2024-02-02T01:28:35.177Z,13.53
2024-02-02T01:31:03.367Z,12.97
2024-02-02T01:33:31.593Z,14.50
2024-02-02T01:36:00.163Z,14.53
2024-02-02T01:38:29.551Z,12.73
2024-02-02T01:40:57.625Z,11.87
2024-02-02T01:43:27.342Z,12.40
2024-02-02T01:45:55.664Z,11.27
2024-02-02T01:48:25.573Z,11.50
2024-02-02T01:50:54.824Z,10.57
2024-02-02T01:53:23.045Z,10.27
2024-02-02T01:55:52.474Z,10.33
2024-02-02T01:58:21.028Z,10.63
2024-02-02T02:00:49.511Z,11.47
2024-02-02T02:03:18.418Z,10.27
2024-02-02T02:05:46.607Z,10.93
2024-02-02T02:08:14.918Z,9.43
2024-02-02T02:10:43.044Z,12.50
2024-02-02T02:13:12.515Z,17.70
2024-02-02T02:15:40.655Z,14.33
2024-02-02T02:18:08.893Z,13.77
2024-02-02T02:20:37.258Z,11.20
2024-02-02T02:23:06.829Z,12.87
2024-02-02T02:25:34.951Z,14.83
2024-02-02T02:28:02.985Z,12.03
2024-02-02T02:30:31.185Z,7.80
2024-02-02T02:32:59.898Z,7.17
2024-02-02T02:35:28.040Z,7.07
2024-02-02T02:37:56.071Z,8.03
2024-02-02T02:40:25.574Z,8.23
2024-02-02T02:42:53.644Z,7.90
2024-02-02T02:45:22.368Z,8.43
2024-02-02T02:47:50.913Z,10.87
2024-02-02T02:50:18.999Z,9.70
2024-02-02T02:52:47.100Z,7.87
2024-02-02T02:55:15.453Z,8.07
2024-02-02T02:57:44.890Z,8.43
2024-02-02T03:00:14.182Z,7.77
2024-02-02T03:02:42.272Z,6.63
2024-02-02T03:05:10.650Z,8.87
2024-02-02T03:07:38.672Z,8.37
2024-02-02T03:10:07.126Z,8.67
2024-02-02T03:12:35.223Z,8.07
2024-02-02T03:15:05.499Z,8.40
2024-02-02T03:17:33.681Z,9.33
2024-02-02T03:20:01.825Z,8.60
2024-02-02T03:22:29.859Z,8.30
2024-02-02T03:24:57.879Z,7.57
2024-02-02T03:27:26.184Z,7.70
2024-02-02T03:29:54.697Z,7.70
2024-02-02T03:32:24.209Z,7.40
2024-02-02T03:34:52.479Z,8.30
2024-02-02T03:37:21.261Z,7.90
2024-02-02T03:39:49.295Z,8.03
2024-02-02T03:42:17.405Z,8.37
2024-02-02T03:44:45.487Z,9.03
2024-02-02T03:47:13.609Z,8.93
2024-02-02T03:49:43.046Z,8.03
2024-02-02T03:52:11.152Z,8.13
2024-02-02T03:54:39.274Z,7.53
2024-02-02T03:57:07.349Z,7.30
2024-02-02T03:59:35.457Z,7.87
2024-02-02T04:02:03.550Z,8.73
2024-02-02T04:04:32.885Z,8.13
2024-02-02T04:07:02.565Z,7.60
2024-02-02T04:09:30.725Z,7.60
2024-02-02T04:11:58.870Z,8.70
2024-02-02T04:14:27.195Z,8.40
2024-02-02T04:16:55.246Z,8.63
2024-02-02T04:19:23.556Z,9.03
2024-02-02T04:21:51.711Z,8.30
2024-02-02T04:24:21.162Z,8.90
2024-02-02T04:26:49.181Z,9.90
2024-02-02T04:29:17.253Z,9.37
2024-02-02T04:31:45.280Z,8.83
2024-02-02T04:34:13.488Z,12.07
2024-02-02T04:36:42.276Z,10.70
2024-02-02T04:39:10.840Z,9.23
2024-02-02T04:41:40.279Z,9.07
2024-02-02T04:44:08.353Z,8.90
2024-02-02T04:46:36.448Z,9.53
2024-02-02T04:49:04.846Z,9.93
2024-02-02T04:51:33.093Z,9.33
2024-02-02T04:54:01.192Z,10.03
2024-02-02T04:56:29.235Z,11.03
2024-02-02T04:58:58.633Z,11.10
2024-02-02T05:01:26.683Z,9.73
2024-02-02T05:03:55.346Z,10.23
2024-02-02T05:06:23.697Z,9.70
2024-02-02T05:08:51.848Z,11.03
2024-02-02T05:11:19.932Z,10.23
2024-02-02T05:13:48.022Z,11.17
2024-02-02T05:16:17.528Z,10.90
2024-02-02T05:18:45.767Z,11.63
2024-02-02T05:21:14.019Z,14.43
2024-02-02T05:23:48.662Z,13.00
2024-02-02T05:26:18.288Z,15.23
2024-02-02T05:28:46.408Z,15.10
2024-02-02T05:31:14.475Z,16.37
2024-02-02T05:33:47.362Z,13.80
2024-02-02T05:36:15.993Z,12.27
2024-02-02T05:38:44.181Z,12.60
2024-02-02T05:41:12.289Z,13.27
2024-02-02T05:43:40.305Z,19.00
2024-02-02T05:46:08.387Z,14.60
2024-02-02T05:48:36.685Z,13.80
2024-02-02T05:51:06.857Z,16.23
2024-02-02T05:53:35.035Z,17.03
2024-02-02T05:56:03.112Z,16.03
2024-02-02T05:58:31.145Z,10.83
2024-02-02T06:00:59.316Z,11.50
2024-02-02T06:03:27.434Z,12.40
2024-02-02T06:05:55.716Z,21.80
2024-02-02T06:08:25.139Z,12.97
2024-02-02T06:10:53.181Z,13.50
2024-02-02T06:13:21.287Z,15.13
2024-02-02T06:15:49.389Z,17.53
2024-02-02T06:18:18.085Z,17.57
2024-02-02T06:20:46.308Z,17.47
2024-02-02T06:23:14.412Z,14.93
2024-02-02T06:25:43.871Z,14.00
2024-02-02T06:28:11.989Z,13.83
2024-02-02T06:30:40.165Z,19.20
2024-02-02T06:33:09.009Z,13.00
2024-02-02T06:35:37.130Z,14.77
2024-02-02T06:38:05.521Z,14.30
2024-02-02T06:40:33.671Z,17.63
2024-02-02T06:43:05.388Z,17.37
2024-02-02T06:45:33.622Z,13.90
2024-02-02T06:48:02.143Z,13.73
2024-02-02T06:50:31.599Z,15.10
2024-02-02T06:52:59.727Z,14.70
2024-02-02T06:55:27.770Z,15.07
2024-02-02T06:57:55.968Z,17.80
2024-02-02T07:00:25.555Z,16.33
2024-02-02T07:02:53.796Z,15.47
2024-02-02T07:05:23.234Z,16.17
2024-02-02T07:07:52.035Z,16.13
2024-02-02T07:10:21.129Z,15.13
2024-02-02T07:12:59.852Z,17.03
2024-02-02T07:15:33.051Z,16.47
2024-02-02T07:18:01.860Z,16.63
2024-02-02T07:21:09.883Z,15.83
2024-02-02T07:23:40.574Z,16.80
2024-02-02T07:26:29.489Z,14.70
2024-02-02T07:28:58.187Z,14.90
2024-02-02T07:31:49.298Z,15.23
2024-02-02T07:34:42.412Z,17.30
2024-02-02T07:37:11.849Z,23.33
2024-02-02T07:39:40.030Z,16.37
2024-02-02T07:42:08.106Z,16.00
2024-02-02T07:44:36.163Z,15.33
2024-02-02T07:47:05.792Z,20.73
2024-02-02T07:49:33.895Z,26.07
2024-02-02T07:52:02.092Z,18.07
2024-02-02T07:54:30.485Z,16.13
2024-02-02T07:56:58.694Z,16.03
2024-02-02T07:59:26.789Z,15.93
2024-02-02T08:01:54.915Z,15.63
2024-02-02T08:04:24.393Z,15.03
2024-02-02T08:06:52.643Z,16.60
2024-02-02T08:09:20.883Z,15.50
2024-02-02T08:11:48.906Z,15.30
2024-02-02T08:14:17.081Z,17.87
2024-02-02T08:16:45.148Z,15.60
2024-02-02T08:19:13.285Z,15.63
2024-02-02T08:21:42.856Z,14.20
2024-02-02T08:24:11.219Z,16.43
2024-02-02T08:26:39.235Z,18.37
2024-02-02T08:29:07.258Z,19.77
2024-02-02T08:31:35.725Z,17.70
2024-02-02T08:34:03.936Z,15.67
2024-02-02T08:36:32.288Z,18.17
2024-02-02T08:39:01.747Z,15.13
2024-02-02T08:41:31.181Z,13.93
2024-02-02T08:43:59.488Z,15.57
2024-02-02T08:46:27.536Z,13.80
2024-02-02T08:48:57.010Z,14.50
2024-02-02T08:51:48.545Z,15.13
2024-02-02T08:54:47.047Z,14.53
2024-02-02T08:57:41.650Z,16.03
2024-02-02T09:00:18.232Z,16.40
2024-02-02T09:03:11.391Z,16.13
2024-02-02T09:05:54.525Z,15.40
2024-02-02T09:08:39.614Z,15.80
2024-02-02T09:11:24.620Z,15.57
2024-02-02T09:14:09.321Z,16.27
2024-02-02T09:16:44.569Z,16.33
2024-02-02T09:19:31.580Z,20.53
2024-02-02T09:22:03.225Z,17.23
2024-02-02T09:24:43.078Z,18.63
2024-02-02T09:27:21.744Z,14.27
2024-02-02T09:29:51.109Z,16.53
2024-02-02T09:32:19.223Z,15.13
2024-02-02T09:34:48.212Z,16.33
2024-02-02T09:37:23.199Z,15.63
2024-02-02T09:39:54.765Z,15.20
2024-02-02T09:42:58.651Z,14.97
2024-02-02T09:45:49.588Z,16.00
2024-02-02T09:48:30.832Z,17.57
2024-02-02T09:51:07.828Z,26.97
2024-02-02T09:54:13.544Z,16.87
2024-02-02T09:56:53.045Z,13.97
2024-02-02T09:59:30.473Z,15.03
2024-02-02T10:02:24.667Z,13.93
2024-02-02T10:04:59.113Z,16.83
2024-02-02T10:07:40.306Z,14.93
2024-02-02T10:10:32.307Z,14.97
2024-02-02T10:13:10.461Z,16.37
2024-02-02T10:15:56.487Z,17.73
2024-02-02T10:18:49.744Z,15.63
2024-02-02T10:21:29.951Z,15.30
2024-02-02T10:24:19.425Z,15.10
2024-02-02T10:27:13.774Z,15.90
2024-02-02T10:30:05.844Z,14.23
2024-02-02T10:33:07.441Z,16.13
2024-02-02T10:35:41.138Z,15.60
2024-02-02T10:38:21.093Z,15.20
2024-02-02T10:40:59.060Z,15.73
2024-02-02T10:43:37.204Z,15.70
2024-02-02T10:46:16.975Z,14.50
2024-02-02T10:49:04.781Z,18.57
2024-02-02T10:51:40.384Z,15.97
2024-02-02T10:54:21.832Z,14.93
2024-02-02T10:57:03.669Z,13.80
2024-02-02T10:59:42.712Z,14.03
2024-02-02T11:02:23.650Z,16.53
2024-02-02T11:05:03.280Z,14.00
2024-02-02T11:07:37.708Z,15.67
2024-02-02T11:10:08.621Z,13.40
2024-02-02T11:12:47.357Z,15.47
2024-02-02T11:15:30.962Z,13.60
2024-02-02T11:18:13.749Z,14.30
2024-02-02T11:20:54.935Z,13.93
2024-02-02T11:23:34.596Z,14.83
2024-02-02T11:26:08.439Z,13.27
2024-02-02T11:28:46.041Z,19.03
2024-02-02T11:31:26.326Z,16.67
2024-02-02T11:34:01.483Z,13.33
2024-02-02T11:36:45.637Z,12.10
2024-02-02T11:39:31.200Z,13.70
2024-02-02T11:42:00.605Z,12.10
2024-02-02T11:44:30.558Z,10.50
2024-02-02T11:47:00.924Z,11.50
2024-02-02T11:49:32.693Z,10.60
2024-02-02T11:52:07.030Z,12.00
2024-02-02T11:54:40.633Z,11.73
2024-02-02T11:57:14.914Z,12.50
2024-02-02T11:59:44.773Z,12.33
2024-02-02T12:02:31.110Z,11.60
2024-02-02T12:05:02.531Z,10.50
2024-02-02T12:07:54.108Z,12.27
2024-02-02T12:10:24.300Z,11.57
2024-02-02T12:13:00.844Z,12.27
2024-02-02T12:15:29.051Z,12.73
2024-02-02T12:18:00.530Z,12.23
2024-02-02T12:20:31.148Z,12.13
2024-02-02T12:23:00.985Z,16.47
2024-02-02T12:25:29.251Z,12.77
2024-02-02T12:27:57.907Z,11.40
2024-02-02T12:30:26.045Z,12.27
2024-02-02T12:32:56.011Z,11.20
2024-02-02T12:35:25.235Z,10.90
2024-02-02T12:37:54.189Z,10.00
2024-02-02T12:40:25.161Z,11.17
2024-02-02T12:42:54.591Z,11.13
2024-02-02T12:45:22.694Z,11.30
2024-02-02T12:47:51.234Z,10.57
2024-02-02T12:50:22.302Z,12.43
2024-02-02T12:52:54.955Z,10.67
2024-02-02T12:55:24.444Z,11.33
2024-02-02T12:57:53.048Z,11.17
2024-02-02T13:00:25.331Z,10.60
2024-02-02T13:02:55.907Z,13.03
2024-02-02T13:05:27.596Z,14.00
2024-02-02T13:07:55.808Z,10.13
2024-02-02T13:10:38.912Z,10.27
2024-02-02T13:13:14.184Z,10.70
2024-02-02T13:15:43.474Z,10.83
2024-02-02T13:18:16.223Z,11.33
2024-02-02T13:20:46.462Z,9.40
2024-02-02T13:23:24.874Z,12.17
2024-02-02T13:25:58.529Z,9.77
2024-02-02T13:28:27.873Z,10.87
2024-02-02T13:30:59.901Z,10.60
2024-02-02T13:33:32.492Z,11.90
2024-02-02T13:36:02.731Z,11.93
2024-02-02T13:38:34.503Z,12.20
2024-02-02T13:41:05.727Z,10.80
2024-02-02T13:43:35.426Z,11.83
2024-02-02T13:46:04.930Z,13.10
2024-02-02T13:48:41.310Z,10.57
2024-02-02T13:51:11.258Z,10.67
2024-02-02T13:53:39.701Z,13.73
2024-02-02T13:56:11.525Z,11.77
2024-02-02T13:58:40.328Z,10.23
2024-02-02T14:01:16.126Z,9.63
2024-02-02T14:03:44.378Z,11.57
2024-02-02T14:06:13.247Z,10.30
2024-02-02T14:08:42.504Z,14.07
2024-02-02T14:11:22.892Z,10.23
2024-02-02T14:13:53.068Z,12.03
2024-02-02T14:16:22.083Z,11.83
2024-02-02T14:19:00.488Z,11.53
2024-02-02T14:21:31.168Z,10.77
2024-02-02T14:24:06.882Z,12.73
2024-02-02T14:26:36.312Z,11.37
2024-02-02T14:29:04.806Z,31.23
2024-02-02T14:31:33.132Z,11.37
2024-02-02T14:34:01.322Z,13.33
2024-02-02T14:36:29.557Z,14.90
2024-02-02T14:38:57.791Z,15.67
2024-02-02T14:41:26.292Z,12.30
2024-02-02T14:43:55.910Z,9.50
2024-02-02T14:46:23.945Z,12.50
2024-02-02T14:48:52.936Z,12.27
2024-02-02T14:51:21.165Z,14.80
2024-02-02T14:53:49.795Z,15.00
2024-02-02T14:56:18.081Z,13.37
2024-02-02T14:58:46.961Z,16.90
2024-02-02T15:01:16.605Z,12.87
2024-02-02T15:03:45.272Z,11.67
2024-02-02T15:06:13.699Z,11.30
2024-02-02T15:08:42.132Z,11.37
2024-02-02T15:11:10.630Z,13.17
2024-02-02T15:13:39.029Z,14.13
2024-02-02T15:16:08.611Z,16.60
2024-02-02T15:18:38.534Z,12.03
2024-02-02T15:21:07.277Z,11.57
2024-02-02T15:23:35.309Z,11.90
2024-02-02T15:26:03.391Z,11.10
2024-02-02T15:28:31.566Z,12.20
2024-02-02T15:30:59.675Z,11.37
2024-02-02T15:33:27.845Z,12.17
2024-02-02T15:35:57.386Z,13.13
2024-02-02T15:38:25.433Z,18.87
2024-02-02T15:40:55.312Z,12.27
2024-02-02T15:43:23.366Z,12.00
2024-02-02T15:45:51.522Z,15.33
2024-02-02T15:48:20.203Z,17.23
2024-02-02T15:50:50.002Z,18.80
2024-02-02T15:53:19.610Z,14.47
2024-02-02T15:55:47.669Z,13.63
2024-02-02T15:58:16.110Z,11.93
2024-02-02T16:00:44.353Z,13.07
2024-02-02T16:03:12.568Z,14.50
2024-02-02T16:05:40.636Z,13.63
2024-02-02T16:08:09.204Z,15.30
2024-02-02T16:10:38.742Z,17.40
2024-02-02T16:13:06.903Z,14.73
2024-02-02T16:15:37.884Z,13.90
2024-02-02T16:18:06.354Z,12.83
2024-02-02T16:20:36.422Z,13.40
2024-02-02T16:23:04.485Z,15.03
2024-02-02T16:25:32.511Z,15.63
2024-02-02T16:28:01.957Z,15.80
2024-02-02T16:30:30.083Z,16.30
2024-02-02T16:32:59.395Z,17.43
2024-02-02T16:35:30.136Z,16.03
2024-02-02T16:38:01.112Z,18.67
2024-02-02T16:40:29.254Z,17.43
2024-02-02T16:42:57.340Z,15.47
2024-02-02T16:45:26.863Z,13.83
2024-02-02T16:47:55.627Z,12.97
2024-02-02T16:50:23.742Z,12.80
2024-02-02T16:52:51.874Z,17.92
2024-02-02T16:55:20.282Z,13.13
2024-02-02T16:57:48.378Z,15.93
2024-02-02T17:00:17.144Z,14.20
2024-02-02T17:02:46.605Z,16.80
2024-02-02T17:05:14.684Z,16.30
2024-02-02T17:07:43.084Z,15.23
2024-02-02T17:10:11.708Z,13.97
2024-02-02T17:12:39.828Z,17.20
2024-02-02T17:15:08.554Z,15.67
2024-02-02T17:17:38.817Z,16.37
2024-02-02T17:20:11.391Z,15.57
2024-02-02T17:22:44.308Z,16.77
2024-02-02T17:25:12.811Z,18.03
2024-02-02T17:27:42.465Z,15.20
2024-02-02T17:30:14.238Z,15.53
2024-02-02T17:32:42.464Z,14.07
2024-02-02T17:35:12.057Z,14.20
2024-02-02T17:37:40.748Z,14.13
2024-02-02T17:40:10.247Z,14.33
2024-02-02T17:42:39.822Z,13.07
2024-02-02T17:45:09.655Z,13.57
2024-02-02T17:47:37.822Z,13.50
2024-02-02T17:50:06.938Z,14.47
2024-02-02T17:52:36.675Z,15.87
2024-02-02T17:55:05.028Z,19.70
2024-02-02T17:57:33.138Z,18.77
2024-02-02T18:00:01.405Z,16.83
2024-02-02T18:02:29.760Z,15.95
2024-02-02T18:04:57.850Z,14.87
2024-02-02T18:07:32.529Z,15.77
2024-02-02T18:10:06.863Z,14.70
2024-02-02T18:12:38.756Z,14.93
2024-02-02T18:15:08.710Z,13.90
2024-02-02T18:17:38.249Z,14.40
2024-02-02T18:20:08.554Z,16.93
2024-02-02T18:22:36.844Z,16.27
2024-02-02T18:25:06.969Z,16.50
2024-02-02T18:27:35.104Z,17.80
2024-02-02T18:30:04.544Z,18.47
2024-02-02T18:32:32.662Z,18.13
2024-02-02T18:35:00.779Z,17.73
2024-02-02T18:37:28.895Z,24.53
2024-02-02T18:39:56.939Z,17.33
2024-02-02T18:42:26.382Z,28.83
2024-02-02T18:44:54.544Z,17.93
2024-02-02T18:47:22.609Z,19.67
2024-02-02T18:49:50.741Z,16.80
2024-02-02T18:52:18.875Z,19.90
2024-02-02T18:54:47.127Z,19.50
2024-02-02T18:57:15.277Z,14.80
2024-02-02T18:59:44.832Z,14.77
2024-02-02T19:02:13.190Z,15.07
2024-02-02T19:04:43.283Z,14.53
2024-02-02T19:07:12.107Z,15.07
2024-02-02T19:09:40.290Z,16.30
2024-02-02T19:12:08.839Z,16.27
2024-02-02T19:14:36.939Z,17.87
2024-02-02T19:17:06.573Z,17.43
2024-02-02T19:19:34.797Z,17.73
2024-02-02T19:22:03.053Z,19.10
2024-02-02T19:24:31.196Z,18.50
2024-02-02T19:26:59.227Z,18.60
2024-02-02T19:29:27.269Z,16.10
2024-02-02T19:31:55.317Z,15.73
2024-02-02T19:34:26.160Z,17.97
2024-02-02T19:36:54.425Z,16.20
2024-02-02T19:39:22.546Z,14.97
2024-02-02T19:41:50.568Z,15.30
2024-02-02T19:44:18.636Z,13.90
2024-02-02T19:46:46.742Z,16.40
2024-02-02T19:49:15.047Z,14.03
2024-02-02T19:51:44.769Z,14.73
2024-02-02T19:54:14.126Z,14.57
2024-02-02T19:56:42.178Z,15.97
2024-02-02T19:59:10.209Z,14.23
2024-02-02T20:01:38.771Z,14.23
2024-02-02T20:04:07.627Z,14.70
2024-02-02T20:06:35.803Z,15.83
2024-02-02T20:09:05.333Z,13.80
2024-02-02T20:11:33.686Z,15.40
2024-02-02T20:14:01.733Z,16.17
2024-02-02T20:16:29.828Z,15.90
2024-02-02T20:18:57.911Z,15.43
2024-02-02T20:21:29.006Z,15.00
2024-02-02T20:23:57.500Z,15.93
2024-02-02T20:26:26.988Z,16.07
2024-02-02T20:28:56.198Z,15.93
2024-02-02T20:31:24.544Z,16.10
2024-02-02T20:33:54.616Z,15.57
2024-02-02T20:36:24.186Z,15.13
2024-02-02T20:38:52.819Z,16.37
2024-02-02T20:41:26.175Z,15.80
2024-02-02T20:43:58.580Z,16.17
2024-02-02T20:46:27.080Z,15.97
2024-02-02T20:48:55.328Z,16.73
2024-02-02T20:51:23.620Z,15.47
2024-02-02T20:53:52.223Z,14.67
2024-02-02T20:56:20.344Z,16.23
2024-02-02T20:58:48.394Z,16.23
2024-02-02T21:01:17.977Z,16.90
2024-02-02T21:03:46.149Z,14.87
2024-02-02T21:06:14.478Z,13.77
2024-02-02T21:08:44.295Z,14.97
2024-02-02T21:11:12.721Z,14.83
2024-02-02T21:13:40.789Z,15.83
2024-02-02T21:16:09.032Z,14.23
2024-02-02T21:18:38.545Z,13.70
2024-02-02T21:21:07.345Z,15.00
2024-02-02T21:23:35.613Z,13.73
2024-02-02T21:26:03.665Z,15.93
2024-02-02T21:28:31.764Z,14.87
2024-02-02T21:31:00.308Z,18.50
2024-02-02T21:33:28.922Z,18.47
2024-02-02T21:36:03.481Z,16.27
2024-02-02T21:38:32.112Z,17.50
2024-02-02T21:41:00.124Z,16.83
2024-02-02T21:43:28.202Z,15.77
2024-02-02T21:45:56.370Z,17.63
2024-02-02T21:48:24.757Z,21.63
2024-02-02T21:50:53.522Z,15.23
2024-02-02T21:53:22.929Z,14.93
2024-02-02T21:55:50.992Z,19.37
2024-02-02T21:58:19.064Z,25.23
2024-02-02T22:00:47.878Z,19.43
2024-02-02T22:03:16.138Z,16.93
2024-02-02T22:05:44.164Z,14.87
2024-02-02T22:08:13.192Z,18.13
2024-02-02T22:10:42.732Z,16.20
2024-02-02T22:13:11.419Z,16.63
2024-02-02T22:15:39.993Z,17.10
2024-02-02T22:18:08.413Z,17.23
2024-02-02T22:20:36.638Z,18.40
2024-02-02T22:23:04.828Z,19.80
2024-02-02T22:25:32.910Z,16.97
2024-02-02T22:28:01.372Z,18.17
2024-02-02T22:30:30.674Z,16.13
2024-02-02T22:32:59.253Z,16.23
2024-02-02T22:35:27.519Z,16.93
2024-02-02T22:37:55.696Z,17.90
2024-02-02T22:40:23.795Z,15.87
2024-02-02T22:42:51.863Z,18.53
2024-02-02T22:45:21.333Z,18.17
2024-02-02T22:47:49.478Z,21.87
2024-02-02T22:50:17.785Z,21.07
2024-02-02T22:52:45.933Z,17.07
2024-02-02T22:55:14.106Z,24.47
2024-02-02T22:57:42.205Z,28.17
2024-02-02T23:00:19.354Z,16.07
2024-02-02T23:02:48.910Z,14.50
2024-02-02T23:05:17.089Z,29.73
2024-02-02T23:07:45.277Z,24.80
2024-02-02T23:10:13.350Z,15.03
2024-02-02T23:12:41.573Z,15.17
2024-02-02T23:15:10.344Z,14.47
2024-02-02T23:17:38.439Z,18.47
2024-02-02T23:20:09.776Z,19.77
2024-02-02T23:22:37.941Z,17.83
2024-02-02T23:25:06.501Z,16.47
2024-02-02T23:27:37.581Z,16.87
2024-02-02T23:30:07.601Z,17.13
2024-02-02T23:32:35.779Z,15.37
2024-02-02T23:35:04.542Z,16.90
2024-02-02T23:37:34.700Z,15.90
2024-02-02T23:40:02.865Z,15.50
2024-02-02T23:42:31.172Z,14.77
2024-02-02T23:44:59.240Z,13.83
2024-02-02T23:47:27.354Z,14.43
2024-02-02T23:49:55.534Z,15.07
2024-02-02T23:52:23.725Z,14.20
2024-02-02T23:54:53.215Z,14.27
2024-02-02T23:57:25.150Z,15.07
2024-02-02T23:59:53.275Z,13.80
